Hastings, NE (68901)

4:57 AM CDT on August 04, 2015 (GMT -0500)
Lake Hastings | | Change Station
CLOSE
Current Station
Personal Weather Station
Location: Hastings, NE
Elevation: 1929 ft
Nearby Weather Stations

Elev 1929 ft 40.61 °N, 98.39 °W | Updated 7 seconds ago

Overcast
Overcast
68.2 °F
Feels Like 68.2 °F
N
9.2
Wind Variable Wind from ENE
Gusts 9.2 mph

Today
High -- | Low -- °F
--% Chance of Precip.
Yesterday
High -- | Low -- °F
Precip. -- in
6:33 AM 8:45 PM
Waning Gibbous, 79% visible
Pressure 29.89 in
Visibility 6.0 miles
Clouds Overcast 300 ft
Dew Point 66 °F
Humidity 93%
Rainfall 0.00 in
Snow Depth Not available.
UV 0 out of 12
Pollen 7.30 out of 12
Air Quality Not available.
Flu Activity Not available.
METAR KHSI 040953Z AUTO 10006KT 6SM BR OVC003 21/20 A2994 RMK AO2 SLP121 T02110200

More Conditions Fewer Conditions

Pressure 29.89 in
Visibility 6.0 miles
Clouds Overcast 300 ft
Dew Point 66 °F
Humidity 93%
Rainfall 0.00 in
Snow Depth Not available.
UV 0 out of 12
Pollen 7.30 out of 12
Air Quality Not available.
Flu Activity Not available.
METAR KHSI 040953Z AUTO 10006KT 6SM BR OVC003 21/20 A2994 RMK AO2 SLP121 T02110200

More Conditions Fewer Conditions

10-Day Weather Forecast

×

Almanac

Astronomy

Aug. 04, 2015 Rise Set
Actual Time
Civil Twilight
Nautical Twilight
Astronomical Twilight
Moon
Length of Visible Light
Length of Day
Tomorrow will be .
, % of the Moon is Illuminated

Today's Extremes

State Highs State Lows

Community

WunderPhotos

Upload Photos

1,843,880 photos uploaded!

WunderBlogs® & News

Nearby

Air Quality

  Air Quality AQ Index Pollutant
Not available.

Snow Depth

Station Depth Elevation

Earthquake Activity

City Distance Mag. Time & Date
Minimum magnitude displayed is 2.5.

Coastal Water Temperatures

Place Temperature

Stations

Nearby Weather Stations

Station Location Temp. Windchill Dew Point Humidity Wind Precip. Elev Updated Type